createdAt,value
2023-04-06T00:00:40.501Z,-0.64
2023-04-06T00:03:07.554Z,-0.75
2023-04-06T00:05:34.559Z,-0.80
2023-04-06T00:08:01.490Z,-1.02
2023-04-06T00:10:29.492Z,-0.65
2023-04-06T00:12:57.663Z,-0.62
2023-04-06T00:15:24.660Z,-0.66
2023-04-06T00:17:51.323Z,-0.52
2023-04-06T00:20:18.596Z,-0.48
2023-04-06T00:22:46.386Z,-0.61
2023-04-06T00:25:13.055Z,-0.54
2023-04-06T00:27:40.042Z,-0.49
2023-04-06T00:30:07.369Z,-0.38
2023-04-06T00:32:34.398Z,-0.45
2023-04-06T00:35:01.150Z,-0.44
2023-04-06T00:37:27.817Z,-0.48
2023-04-06T00:39:54.563Z,-0.52
2023-04-06T00:42:26.727Z,-0.72
2023-04-06T00:44:59.005Z,-0.61
2023-04-06T00:47:28.663Z,-0.62
2023-04-06T00:49:55.890Z,-0.65
2023-04-06T00:52:22.587Z,-0.65
2023-04-06T00:54:50.624Z,-0.59
2023-04-06T00:57:18.383Z,-0.67
2023-04-06T00:59:45.605Z,-0.76
2023-04-06T01:02:12.367Z,-0.64
2023-04-06T01:04:39.181Z,-0.81
2023-04-06T01:07:05.877Z,-0.58
2023-04-06T01:09:32.464Z,-0.71
2023-04-06T01:11:59.613Z,-0.58
2023-04-06T01:14:26.748Z,-0.72
2023-04-06T01:16:53.688Z,-0.58
2023-04-06T01:19:22.034Z,-0.56
2023-04-06T01:21:50.493Z,-0.46
2023-04-06T01:24:17.480Z,-0.38
2023-04-06T01:26:45.036Z,-0.40
2023-04-06T01:29:11.850Z,-0.89
2023-04-06T01:31:39.185Z,-0.43
2023-04-06T01:34:06.066Z,-0.45
2023-04-06T01:36:33.164Z,-0.45
2023-04-06T01:38:59.939Z,-0.54
2023-04-06T01:41:27.364Z,-0.44
2023-04-06T01:43:55.662Z,-0.69
2023-04-06T01:46:22.584Z,-0.38
2023-04-06T01:48:49.971Z,-0.49
2023-04-06T01:51:16.599Z,-0.55
2023-04-06T01:53:43.693Z,-0.74
2023-04-06T01:56:10.794Z,-0.48
2023-04-06T01:58:37.477Z,-0.69
2023-04-06T02:01:04.359Z,-0.58
2023-04-06T02:03:31.853Z,-0.48
2023-04-06T02:05:58.655Z,-0.53
2023-04-06T02:08:25.530Z,-0.61
2023-04-06T02:10:52.475Z,-0.63
2023-04-06T02:13:19.307Z,-0.62
2023-04-06T02:15:46.036Z,-0.67
2023-04-06T02:18:12.824Z,-0.64
2023-04-06T02:20:39.571Z,-0.64
2023-04-06T02:23:06.445Z,-0.83
2023-04-06T02:25:33.477Z,-0.82
2023-04-06T02:28:00.614Z,-0.61
2023-04-06T02:30:27.719Z,-0.74
2023-04-06T02:32:54.427Z,-0.64
2023-04-06T02:35:21.417Z,-0.74
2023-04-06T02:37:48.168Z,-0.64
2023-04-06T02:40:15.634Z,-0.65
2023-04-06T02:42:42.300Z,-0.51
2023-04-06T02:45:09.520Z,-0.53
2023-04-06T02:47:36.268Z,-0.50
2023-04-06T02:50:03.388Z,-0.45
2023-04-06T02:52:30.057Z,-0.48
2023-04-06T02:54:56.683Z,-0.35
2023-04-06T02:57:23.476Z,-0.33
2023-04-06T02:59:50.110Z,-0.37
2023-04-06T03:02:16.950Z,-0.42
2023-04-06T03:04:44.274Z,-0.34
2023-04-06T03:07:11.060Z,-0.23
2023-04-06T03:09:40.957Z,-0.16
2023-04-06T03:12:09.941Z,-0.17
2023-04-06T03:14:37.056Z,-0.19
2023-04-06T03:17:03.897Z,-0.28
2023-04-06T03:19:30.605Z,-0.38
2023-04-06T03:21:57.302Z,-0.35
2023-04-06T03:24:24.105Z,-0.46
2023-04-06T03:26:50.933Z,-0.29
2023-04-06T03:29:17.561Z,-0.31
2023-04-06T03:31:44.215Z,-0.36
2023-04-06T03:34:11.191Z,-0.37
2023-04-06T03:36:37.864Z,-0.42
2023-04-06T03:39:04.826Z,-0.45
2023-04-06T03:41:31.597Z,-0.42
2023-04-06T03:43:58.287Z,-0.60
2023-04-06T03:46:24.992Z,-0.54
2023-04-06T03:48:51.592Z,-0.47
2023-04-06T03:51:18.375Z,-0.56
2023-04-06T03:53:45.110Z,-0.58
2023-04-06T03:56:11.845Z,-0.55
2023-04-06T03:58:38.540Z,-0.60
2023-04-06T04:01:05.311Z,-0.45
2023-04-06T04:03:32.387Z,-0.63
2023-04-06T04:05:59.079Z,-0.52
2023-04-06T04:08:26.642Z,-0.71
2023-04-06T04:10:53.253Z,-0.81
2023-04-06T04:13:20.489Z,-0.54
2023-04-06T04:15:48.647Z,-0.66
2023-04-06T04:18:15.848Z,-0.60
2023-04-06T04:20:42.654Z,-0.49
2023-04-06T04:23:09.283Z,-0.65
2023-04-06T04:25:36.033Z,-0.49
2023-04-06T04:28:02.999Z,-0.41
2023-04-06T04:30:29.871Z,-0.46
2023-04-06T04:32:56.639Z,-0.37
2023-04-06T04:35:23.433Z,-0.21
2023-04-06T04:37:50.203Z,-0.36
2023-04-06T04:40:17.757Z,-0.46
2023-04-06T04:42:44.581Z,-0.32
2023-04-06T04:45:11.690Z,-0.21
2023-04-06T04:47:38.383Z,-0.23
2023-04-06T04:50:05.937Z,-0.23
2023-04-06T04:52:32.913Z,-0.23
2023-04-06T04:54:59.658Z,-0.17
2023-04-06T04:57:26.504Z,-0.20
2023-04-06T04:59:53.098Z,-0.11
2023-04-06T05:02:20.051Z,-0.04
2023-04-06T05:04:46.816Z,-0.07
2023-04-06T05:07:13.683Z,-0.15
2023-04-06T05:09:40.556Z,-0.07
2023-04-06T05:12:07.510Z,-0.23
2023-04-06T05:14:34.674Z,0.10
2023-04-06T05:17:01.781Z,0.05
2023-04-06T05:19:28.528Z,0.04
2023-04-06T05:21:55.405Z,-0.14
2023-04-06T05:24:22.259Z,-0.06
2023-04-06T05:26:49.868Z,-0.08
2023-04-06T05:29:17.957Z,0.11
2023-04-06T05:31:44.610Z,0.07
2023-04-06T05:34:11.672Z,0.08
2023-04-06T05:36:38.278Z,0.16
2023-04-06T05:39:04.824Z,0.10
2023-04-06T05:41:31.700Z,0.21
2023-04-06T05:43:58.455Z,0.25
2023-04-06T05:46:25.245Z,0.41
2023-04-06T05:48:51.942Z,0.44
2023-04-06T05:51:18.570Z,0.51
2023-04-06T05:53:45.504Z,0.55
2023-04-06T05:56:12.359Z,0.41
2023-04-06T05:58:39.097Z,0.56
2023-04-06T06:01:05.928Z,0.45
2023-04-06T06:03:32.705Z,0.54
2023-04-06T06:06:05.314Z,0.56
2023-04-06T06:08:32.445Z,0.46
2023-04-06T06:10:59.607Z,0.36
2023-04-06T06:13:26.359Z,0.54
2023-04-06T06:15:53.438Z,0.32
2023-04-06T06:18:20.426Z,0.37
2023-04-06T06:20:47.095Z,0.48
2023-04-06T06:23:14.099Z,0.41
2023-04-06T06:25:40.992Z,0.35
2023-04-06T06:28:07.830Z,0.55
2023-04-06T06:30:34.782Z,0.62
2023-04-06T06:33:01.772Z,0.46
2023-04-06T06:35:28.703Z,0.44
2023-04-06T06:37:55.692Z,0.51
2023-04-06T06:40:25.057Z,0.46
2023-04-06T06:42:52.595Z,-0.10
2023-04-06T06:45:20.043Z,0.69
2023-04-06T06:47:47.453Z,0.45
2023-04-06T06:50:14.415Z,0.76
2023-04-06T06:52:41.474Z,0.85
2023-04-06T06:55:09.425Z,0.91
2023-04-06T06:57:36.218Z,0.88
2023-04-06T07:00:03.138Z,0.82
2023-04-06T07:02:30.083Z,0.96
2023-04-06T07:04:56.907Z,0.73
2023-04-06T07:07:23.875Z,0.87
2023-04-06T07:09:50.621Z,0.82
2023-04-06T07:12:17.667Z,0.73
2023-04-06T07:14:44.497Z,0.94
2023-04-06T07:17:11.370Z,1.17
2023-04-06T07:19:38.274Z,1.09
2023-04-06T07:22:05.768Z,1.22
2023-04-06T07:24:32.753Z,1.15
2023-04-06T07:27:02.985Z,1.30
2023-04-06T07:29:29.837Z,1.27
2023-04-06T07:31:56.495Z,1.53
2023-04-06T07:34:23.812Z,1.39
2023-04-06T07:36:50.818Z,1.45
2023-04-06T07:39:17.503Z,1.44
2023-04-06T07:41:44.077Z,1.30
2023-04-06T07:44:10.913Z,1.54
2023-04-06T07:46:37.896Z,1.51
2023-04-06T07:49:04.844Z,1.64
2023-04-06T07:51:32.126Z,1.79
2023-04-06T07:53:58.895Z,1.80
2023-04-06T07:56:26.140Z,1.91
2023-04-06T07:58:54.360Z,2.10
2023-04-06T08:01:21.281Z,2.02
2023-04-06T08:03:48.365Z,2.03
2023-04-06T08:06:15.452Z,1.79
2023-04-06T08:08:43.206Z,1.75
2023-04-06T08:11:10.545Z,1.92
2023-04-06T08:13:37.454Z,2.20
2023-04-06T08:16:04.442Z,2.17
2023-04-06T08:18:31.166Z,1.94
2023-04-06T08:20:58.099Z,1.87
2023-04-06T08:23:25.228Z,2.20
2023-04-06T08:25:54.336Z,2.27
2023-04-06T08:28:22.391Z,2.23
2023-04-06T08:30:49.427Z,2.18
2023-04-06T08:33:16.686Z,2.43
2023-04-06T08:35:43.588Z,2.41
2023-04-06T08:38:10.454Z,2.54
2023-04-06T08:40:38.749Z,2.57
2023-04-06T08:43:10.217Z,2.68
2023-04-06T08:45:37.077Z,2.70
2023-04-06T08:48:04.889Z,2.90
2023-04-06T08:50:33.416Z,3.11
2023-04-06T08:53:00.931Z,2.85
2023-04-06T08:55:28.048Z,2.61
2023-04-06T08:57:56.784Z,2.71
2023-04-06T09:00:24.262Z,2.53
2023-04-06T09:02:54.573Z,2.67
2023-04-06T09:05:22.832Z,2.86
2023-04-06T09:07:49.492Z,2.62
2023-04-06T09:10:18.099Z,3.13
2023-04-06T09:12:45.325Z,3.25
2023-04-06T09:15:24.672Z,3.37
2023-04-06T09:17:53.003Z,3.51
2023-04-06T09:20:27.385Z,3.56
2023-04-06T09:22:54.076Z,3.67
2023-04-06T09:25:22.420Z,3.62
2023-04-06T09:27:49.776Z,3.80
2023-04-06T09:30:17.868Z,3.65
2023-04-06T09:32:49.038Z,3.64
2023-04-06T09:35:16.374Z,2.84
2023-04-06T09:37:47.160Z,3.55
2023-04-06T09:40:14.746Z,3.50
2023-04-06T09:42:42.924Z,3.39
2023-04-06T09:45:10.056Z,3.77
2023-04-06T09:47:38.349Z,3.40
2023-04-06T09:50:05.964Z,3.57
2023-04-06T09:52:47.644Z,3.99
2023-04-06T09:55:23.747Z,3.79
2023-04-06T09:57:58.491Z,3.94
2023-04-06T10:00:28.258Z,4.32
2023-04-06T10:03:20.101Z,4.24
2023-04-06T10:06:01.124Z,3.89
2023-04-06T10:08:32.526Z,3.81
2023-04-06T10:11:00.071Z,3.55
2023-04-06T10:13:26.840Z,3.54
2023-04-06T10:15:53.983Z,3.55
2023-04-06T10:18:23.975Z,3.45
2023-04-06T10:20:56.072Z,3.59
2023-04-06T10:23:31.675Z,4.04
2023-04-06T10:26:00.851Z,4.41
2023-04-06T10:28:36.875Z,4.27
2023-04-06T10:31:07.531Z,3.76
2023-04-06T10:33:34.840Z,3.93
2023-04-06T10:36:14.950Z,3.90
2023-04-06T10:38:43.312Z,4.09
2023-04-06T10:41:12.812Z,3.98
2023-04-06T10:43:41.370Z,3.70
2023-04-06T10:46:09.940Z,3.85
2023-04-06T10:48:41.216Z,4.01
2023-04-06T10:51:13.304Z,4.11
2023-04-06T10:53:46.713Z,4.39
2023-04-06T10:56:16.437Z,4.08
2023-04-06T10:58:50.472Z,3.65
2023-04-06T11:01:18.810Z,4.14
2023-04-06T11:03:47.348Z,3.99
2023-04-06T11:06:24.452Z,3.53
2023-04-06T11:08:52.591Z,4.09
2023-04-06T11:11:23.185Z,4.49
2023-04-06T11:13:53.090Z,4.39
2023-04-06T11:16:25.982Z,4.10
2023-04-06T11:18:54.612Z,4.27
2023-04-06T11:21:33.709Z,4.28
2023-04-06T11:24:18.390Z,4.32
2023-04-06T11:26:49.663Z,4.55
2023-04-06T11:29:18.585Z,5.19
2023-04-06T11:31:53.914Z,5.57
2023-04-06T11:34:23.004Z,5.66
2023-04-06T11:36:55.540Z,5.10
2023-04-06T11:39:27.467Z,5.19
2023-04-06T11:41:58.396Z,5.25
2023-04-06T11:44:51.118Z,5.06
2023-04-06T11:47:17.825Z,5.16
2023-04-06T11:49:51.390Z,5.27
2023-04-06T11:52:20.986Z,5.07
2023-04-06T11:54:49.653Z,5.11
2023-04-06T11:57:17.865Z,4.91
2023-04-06T11:59:45.548Z,5.26
2023-04-06T12:02:12.302Z,5.31
2023-04-06T12:04:39.326Z,5.63
2023-04-06T12:07:06.220Z,5.35
2023-04-06T12:09:33.627Z,5.21
2023-04-06T12:12:00.328Z,5.27
2023-04-06T12:14:27.114Z,5.53
2023-04-06T12:16:53.837Z,5.94
2023-04-06T12:19:20.450Z,5.96
2023-04-06T12:21:47.581Z,5.59
2023-04-06T12:24:14.248Z,5.47
2023-04-06T12:26:42.521Z,5.56
2023-04-06T12:29:09.451Z,5.78
2023-04-06T12:31:37.156Z,5.74
2023-04-06T12:34:04.472Z,5.50
2023-04-06T12:36:32.494Z,5.25
2023-04-06T12:39:00.260Z,5.26
2023-04-06T12:41:27.302Z,5.60
2023-04-06T12:43:54.019Z,5.65
2023-04-06T12:46:21.773Z,5.60
2023-04-06T12:48:48.972Z,5.74
2023-04-06T12:51:15.825Z,5.72
2023-04-06T12:53:42.555Z,5.58
2023-04-06T12:56:18.441Z,5.70
2023-04-06T12:58:46.507Z,5.66
2023-04-06T13:01:14.878Z,5.54
2023-04-06T13:03:42.654Z,5.69
2023-04-06T13:06:09.994Z,5.59
2023-04-06T13:08:40.226Z,5.74
2023-04-06T13:11:10.067Z,5.74
2023-04-06T13:13:38.317Z,5.63
2023-04-06T13:16:07.876Z,5.82
2023-04-06T13:18:36.488Z,5.96
2023-04-06T13:21:03.380Z,5.82
2023-04-06T13:23:30.826Z,5.65
2023-04-06T13:26:03.520Z,5.42
2023-04-06T13:28:31.038Z,5.65
2023-04-06T13:31:00.088Z,5.41
2023-04-06T13:33:27.646Z,5.36
2023-04-06T13:35:54.381Z,5.01
2023-04-06T13:38:21.360Z,5.01
2023-04-06T13:40:48.018Z,5.15
2023-04-06T13:43:15.071Z,5.30
2023-04-06T13:45:41.933Z,5.23
2023-04-06T13:48:09.043Z,4.94
2023-04-06T13:50:36.248Z,4.92
2023-04-06T13:53:02.886Z,4.83
2023-04-06T13:55:35.540Z,4.95
2023-04-06T13:58:02.311Z,4.96
2023-04-06T14:00:29.004Z,5.07
2023-04-06T14:02:56.476Z,4.88
2023-04-06T14:05:24.706Z,5.15
2023-04-06T14:07:51.914Z,4.77
2023-04-06T14:10:18.740Z,4.93
2023-04-06T14:12:45.781Z,5.22
2023-04-06T14:15:13.490Z,5.14
2023-04-06T14:17:40.970Z,5.19
2023-04-06T14:20:08.501Z,5.02
2023-04-06T14:22:35.356Z,4.84
2023-04-06T14:25:02.118Z,4.78
2023-04-06T14:27:28.927Z,4.68
2023-04-06T14:29:56.016Z,4.54
2023-04-06T14:32:22.891Z,4.82
2023-04-06T14:34:49.690Z,4.92
2023-04-06T14:37:17.554Z,4.67
2023-04-06T14:39:44.765Z,4.67
2023-04-06T14:42:11.482Z,4.59
2023-04-06T14:44:39.702Z,4.48
2023-04-06T14:47:06.773Z,4.23
2023-04-06T14:49:33.523Z,4.50
2023-04-06T14:52:00.701Z,4.51
2023-04-06T14:54:27.387Z,4.41
2023-04-06T14:56:54.046Z,4.48
2023-04-06T14:59:20.745Z,4.10
2023-04-06T15:01:47.716Z,4.12
2023-04-06T15:04:15.276Z,4.20
2023-04-06T15:06:42.195Z,4.08
2023-04-06T15:09:09.151Z,4.06
2023-04-06T15:11:35.993Z,3.99
2023-04-06T15:14:03.031Z,3.91
2023-04-06T15:16:33.560Z,3.63
2023-04-06T15:19:01.534Z,3.75
2023-04-06T15:21:28.409Z,3.65
2023-04-06T15:23:55.953Z,3.71
2023-04-06T15:26:22.692Z,3.78
2023-04-06T15:28:49.625Z,3.78
2023-04-06T15:31:32.948Z,3.84
2023-04-06T15:34:03.018Z,3.59
2023-04-06T15:36:30.922Z,3.51
2023-04-06T15:39:01.773Z,3.64
2023-04-06T15:41:28.581Z,3.61
2023-04-06T15:43:55.701Z,3.43
2023-04-06T15:46:23.531Z,3.46
2023-04-06T15:48:50.313Z,3.15
2023-04-06T15:51:17.904Z,3.58
2023-04-06T15:53:45.525Z,3.63
2023-04-06T15:56:14.415Z,3.38
2023-04-06T15:58:41.454Z,3.20
2023-04-06T16:01:19.256Z,3.03
2023-04-06T16:03:47.137Z,2.93
2023-04-06T16:06:13.935Z,2.97
2023-04-06T16:08:41.981Z,3.16
2023-04-06T16:11:09.889Z,3.16
2023-04-06T16:13:37.111Z,3.08
2023-04-06T16:16:05.051Z,3.07
2023-04-06T16:18:33.077Z,3.09
2023-04-06T16:21:01.036Z,3.07
2023-04-06T16:23:27.858Z,3.04
2023-04-06T16:25:54.535Z,2.92
2023-04-06T16:28:23.372Z,2.86
2023-04-06T16:30:49.932Z,3.00
2023-04-06T16:33:19.205Z,2.90
2023-04-06T16:35:47.205Z,2.97
2023-04-06T16:38:14.271Z,2.91
2023-04-06T16:40:41.403Z,2.78
2023-04-06T16:43:09.806Z,2.81
2023-04-06T16:45:37.045Z,2.78
2023-04-06T16:48:03.712Z,2.74
2023-04-06T16:50:30.540Z,2.81
2023-04-06T16:52:57.267Z,2.74
2023-04-06T16:55:23.893Z,2.75
2023-04-06T16:57:50.827Z,2.83
2023-04-06T17:00:18.059Z,2.81
2023-04-06T17:02:47.789Z,2.77
2023-04-06T17:05:14.641Z,2.78
2023-04-06T17:07:41.305Z,2.61
2023-04-06T17:10:08.522Z,2.67
2023-04-06T17:12:35.260Z,2.70
2023-04-06T17:15:02.129Z,2.60
2023-04-06T17:17:29.175Z,2.57
2023-04-06T17:19:56.681Z,2.58
2023-04-06T17:22:23.829Z,2.58
2023-04-06T17:24:50.856Z,2.63
2023-04-06T17:27:23.100Z,2.57
2023-04-06T17:29:49.900Z,2.69
2023-04-06T17:32:16.687Z,2.54
2023-04-06T17:34:43.492Z,2.60
2023-04-06T17:37:10.676Z,2.62
2023-04-06T17:39:37.275Z,2.48
2023-04-06T17:42:04.950Z,2.58
2023-04-06T17:44:32.002Z,2.69
2023-04-06T17:46:58.820Z,2.70
2023-04-06T17:49:25.921Z,2.62
2023-04-06T17:51:52.649Z,2.63
2023-04-06T17:54:19.381Z,2.65
2023-04-06T17:56:49.248Z,2.47
2023-04-06T17:59:16.238Z,2.58
2023-04-06T18:01:42.959Z,2.71
2023-04-06T18:04:09.754Z,2.61
2023-04-06T18:06:36.965Z,2.68
2023-04-06T18:09:04.469Z,2.50
2023-04-06T18:11:32.782Z,2.43
2023-04-06T18:13:59.775Z,2.62
2023-04-06T18:16:26.851Z,2.53
2023-04-06T18:18:55.699Z,2.54
2023-04-06T18:21:22.395Z,2.55
2023-04-06T18:23:49.579Z,2.64
2023-04-06T18:26:18.678Z,2.64
2023-04-06T18:28:46.691Z,2.68
2023-04-06T18:31:13.984Z,2.70
2023-04-06T18:33:40.898Z,2.59
2023-04-06T18:36:07.792Z,2.51
2023-04-06T18:38:34.488Z,2.54
2023-04-06T18:41:01.429Z,2.61
2023-04-06T18:43:28.583Z,2.58
2023-04-06T18:45:55.604Z,2.55
2023-04-06T18:48:22.721Z,2.61
2023-04-06T18:50:57.720Z,2.61
2023-04-06T18:53:24.903Z,2.65
2023-04-06T18:55:51.727Z,2.65
2023-04-06T18:58:18.334Z,2.60
2023-04-06T19:00:45.505Z,2.63
2023-04-06T19:03:12.359Z,2.60
2023-04-06T19:05:41.902Z,2.67
2023-04-06T19:08:09.124Z,2.64
2023-04-06T19:10:37.480Z,2.61
2023-04-06T19:13:04.878Z,2.63
2023-04-06T19:15:31.944Z,2.56
2023-04-06T19:17:58.975Z,2.58
2023-04-06T19:20:25.856Z,2.54
2023-04-06T19:22:52.544Z,2.43
2023-04-06T19:25:19.276Z,2.38
2023-04-06T19:27:45.892Z,2.41
2023-04-06T19:30:12.755Z,2.32
2023-04-06T19:32:40.301Z,2.41
2023-04-06T19:35:08.167Z,2.40
2023-04-06T19:37:36.320Z,2.33
2023-04-06T19:40:07.605Z,2.27
2023-04-06T19:42:34.760Z,2.25
2023-04-06T19:45:01.617Z,2.26
2023-04-06T19:47:28.251Z,2.17
2023-04-06T19:49:54.859Z,2.16
2023-04-06T19:52:22.734Z,2.03
2023-04-06T19:54:49.593Z,1.96
2023-04-06T19:57:16.301Z,1.99
2023-04-06T19:59:43.195Z,2.05
2023-04-06T20:02:09.983Z,2.00
2023-04-06T20:04:36.695Z,2.07
2023-04-06T20:07:03.629Z,2.07
2023-04-06T20:09:30.482Z,2.03
2023-04-06T20:11:57.148Z,1.99
2023-04-06T20:14:24.259Z,1.94
2023-04-06T20:16:52.205Z,1.99
2023-04-06T20:19:19.237Z,2.00
2023-04-06T20:21:46.690Z,2.03
2023-04-06T20:24:13.421Z,2.04
2023-04-06T20:26:40.396Z,2.11
2023-04-06T20:29:07.303Z,2.17
2023-04-06T20:31:34.149Z,2.19
2023-04-06T20:34:01.613Z,2.20
2023-04-06T20:36:31.121Z,2.00
2023-04-06T20:38:57.918Z,2.12
2023-04-06T20:41:25.289Z,2.05
2023-04-06T20:43:51.984Z,2.01
2023-04-06T20:46:18.852Z,2.10
2023-04-06T20:48:45.555Z,2.07
2023-04-06T20:51:24.750Z,2.09
2023-04-06T20:53:53.026Z,2.10
2023-04-06T20:56:21.901Z,2.04
2023-04-06T20:58:49.177Z,2.01
2023-04-06T21:01:16.877Z,2.02
2023-04-06T21:03:45.073Z,2.09
2023-04-06T21:06:12.286Z,2.14
2023-04-06T21:08:38.965Z,2.13
2023-04-06T21:11:06.407Z,2.23
2023-04-06T21:13:34.037Z,2.23
2023-04-06T21:16:01.791Z,2.33
2023-04-06T21:18:30.713Z,2.29
2023-04-06T21:20:57.468Z,2.34
2023-04-06T21:23:24.338Z,2.30
2023-04-06T21:25:52.080Z,2.33
2023-04-06T21:28:19.258Z,2.42
2023-04-06T21:30:45.982Z,2.27
2023-04-06T21:33:12.701Z,2.42
2023-04-06T21:35:40.515Z,2.28
2023-04-06T21:38:08.125Z,2.26
2023-04-06T21:40:35.528Z,2.29
2023-04-06T21:43:02.410Z,2.20
2023-04-06T21:45:29.130Z,2.19
2023-04-06T21:47:55.816Z,2.19
2023-04-06T21:50:22.610Z,2.19
2023-04-06T21:52:49.221Z,2.01
2023-04-06T21:55:15.923Z,2.13
2023-04-06T21:57:44.514Z,2.02
2023-04-06T22:00:12.110Z,2.00
2023-04-06T22:02:40.895Z,2.04
2023-04-06T22:05:08.653Z,2.03
2023-04-06T22:07:35.774Z,1.88
2023-04-06T22:10:02.652Z,1.93
2023-04-06T22:12:29.454Z,1.86
2023-04-06T22:14:56.217Z,1.96
2023-04-06T22:17:22.987Z,1.83
2023-04-06T22:19:49.723Z,1.80
2023-04-06T22:22:16.453Z,1.74
2023-04-06T22:24:43.129Z,1.82
2023-04-06T22:27:09.968Z,1.70
2023-04-06T22:29:36.717Z,1.65
2023-04-06T22:32:03.482Z,1.61
2023-04-06T22:34:30.766Z,1.68
2023-04-06T22:36:57.578Z,1.63
2023-04-06T22:39:24.226Z,1.54
2023-04-06T22:41:51.039Z,1.66
2023-04-06T22:44:17.896Z,1.63
2023-04-06T22:46:44.751Z,1.57
2023-04-06T22:49:11.462Z,1.55
2023-04-06T22:51:41.138Z,1.56
2023-04-06T22:54:09.344Z,1.49
2023-04-06T22:56:36.208Z,1.39
2023-04-06T22:59:03.330Z,1.37
2023-04-06T23:01:30.020Z,1.36
2023-04-06T23:03:57.227Z,1.32
2023-04-06T23:06:24.009Z,1.07
2023-04-06T23:08:50.963Z,1.21
2023-04-06T23:11:17.534Z,1.14
2023-04-06T23:13:44.476Z,1.17
2023-04-06T23:16:11.507Z,1.08
2023-04-06T23:18:38.218Z,0.95
2023-04-06T23:21:08.271Z,1.20
2023-04-06T23:23:35.182Z,1.11
2023-04-06T23:26:01.793Z,1.14
2023-04-06T23:28:28.543Z,1.05
2023-04-06T23:30:55.228Z,1.03
2023-04-06T23:33:21.840Z,0.99
2023-04-06T23:35:50.059Z,0.86
2023-04-06T23:38:17.241Z,0.95
2023-04-06T23:40:43.847Z,0.89
2023-04-06T23:43:10.564Z,0.78
2023-04-06T23:45:42.261Z,0.93
2023-04-06T23:48:10.004Z,0.84
2023-04-06T23:50:36.950Z,0.87
2023-04-06T23:53:04.555Z,0.91
2023-04-06T23:55:31.696Z,0.98
2023-04-06T23:57:58.686Z,0.96
